createdAt,value
2022-10-20T00:02:31.626Z,100.00
2022-10-20T00:07:56.520Z,100.00
2022-10-20T00:13:20.594Z,100.00
2022-10-20T00:18:48.507Z,100.00
2022-10-20T00:24:16.839Z,100.00
2022-10-20T00:29:41.525Z,100.00
2022-10-20T00:35:08.497Z,100.00
2022-10-20T00:40:33.527Z,100.00
2022-10-20T00:45:58.507Z,100.00
2022-10-20T00:51:29.507Z,100.00
2022-10-20T00:56:57.559Z,100.00
2022-10-20T01:02:23.537Z,100.00
2022-10-20T01:07:50.555Z,100.00
2022-10-20T01:13:22.522Z,100.00
2022-10-20T01:19:01.539Z,100.00
2022-10-20T01:24:57.527Z,100.00
2022-10-20T01:30:29.546Z,100.00
2022-10-20T01:36:04.543Z,100.00
2022-10-20T01:41:39.543Z,100.00
2022-10-20T01:47:09.571Z,100.00
2022-10-20T01:52:34.858Z,100.00
2022-10-20T01:58:19.554Z,100.00
2022-10-20T02:04:00.558Z,100.00
2022-10-20T02:09:29.635Z,100.00
2022-10-20T02:15:03.551Z,100.00
2022-10-20T02:20:31.563Z,100.00
2022-10-20T02:25:58.577Z,100.00
2022-10-20T02:31:23.561Z,100.00
2022-10-20T02:36:53.555Z,100.00
2022-10-20T02:42:18.559Z,100.00
2022-10-20T02:47:42.562Z,100.00
2022-10-20T02:53:09.877Z,100.00
2022-10-20T02:58:34.581Z,100.00
2022-10-20T03:04:03.027Z,100.00
2022-10-20T03:09:29.585Z,100.00
2022-10-20T03:14:54.607Z,100.00
2022-10-20T03:20:20.605Z,100.00
2022-10-20T03:25:47.609Z,100.00
2022-10-20T03:31:12.619Z,100.00
2022-10-20T03:36:37.570Z,100.00
2022-10-20T03:41:58.583Z,100.00
2022-10-20T03:47:23.698Z,100.00
2022-10-20T03:52:48.803Z,100.00
2022-10-20T03:58:15.673Z,100.00
2022-10-20T04:03:40.616Z,100.00
2022-10-20T04:09:04.644Z,100.00
2022-10-20T04:14:31.600Z,100.00
2022-10-20T04:19:55.626Z,100.00
2022-10-20T04:25:20.621Z,100.00
2022-10-20T04:30:47.630Z,100.00
2022-10-20T04:36:14.613Z,100.00
2022-10-20T04:41:38.633Z,100.00
2022-10-20T04:47:06.610Z,100.00
2022-10-20T04:52:40.685Z,100.00
2022-10-20T04:58:05.637Z,100.00
2022-10-20T05:03:33.632Z,100.00
2022-10-20T05:09:00.717Z,100.00
2022-10-20T05:14:25.236Z,100.00
2022-10-20T05:19:52.631Z,100.00
2022-10-20T05:25:36.529Z,100.00
2022-10-20T05:31:01.841Z,100.00
2022-10-20T05:36:30.677Z,100.00
2022-10-20T05:41:55.682Z,100.00
2022-10-20T05:47:20.652Z,100.00
2022-10-20T05:52:48.638Z,100.00
2022-10-20T05:58:14.677Z,100.00
2022-10-20T06:03:39.642Z,100.00
2022-10-20T06:09:07.714Z,100.00
2022-10-20T06:14:32.770Z,100.00
2022-10-20T06:19:56.635Z,100.00
2022-10-20T06:25:24.684Z,100.00
2022-10-20T06:30:48.675Z,100.00
2022-10-20T06:36:13.668Z,100.00
2022-10-20T06:41:42.659Z,100.00
2022-10-20T06:47:09.671Z,100.00
2022-10-20T06:52:33.878Z,100.00
2022-10-20T06:58:01.653Z,100.00
2022-10-20T07:03:25.669Z,100.00
2022-10-20T07:08:50.736Z,100.00
2022-10-20T07:14:19.111Z,100.00
2022-10-20T07:19:44.725Z,100.00
2022-10-20T07:25:12.671Z,100.00
2022-10-20T07:30:40.671Z,100.00
2022-10-20T07:36:04.682Z,100.00
2022-10-20T07:41:30.749Z,100.00
2022-10-20T07:46:57.687Z,100.00
2022-10-20T07:52:22.724Z,100.00
2022-10-20T07:57:46.736Z,100.00
2022-10-20T08:03:14.704Z,100.00
2022-10-20T08:08:39.152Z,100.00
2022-10-20T08:14:03.723Z,100.00
2022-10-20T08:19:52.889Z,100.00
2022-10-20T08:25:22.729Z,100.00
2022-10-20T08:30:46.747Z,100.00
2022-10-20T08:36:17.806Z,100.00
2022-10-20T08:47:40.156Z,100.00
2022-10-20T08:53:09.709Z,100.00
2022-10-20T08:58:34.719Z,100.00
2022-10-20T09:03:59.778Z,100.00
2022-10-20T09:09:29.898Z,100.00
2022-10-20T09:14:53.737Z,100.00
2022-10-20T09:20:28.732Z,100.00
2022-10-20T09:25:57.798Z,100.00
2022-10-20T09:31:32.791Z,100.00
2022-10-20T09:36:57.767Z,100.00
2022-10-20T09:42:29.887Z,100.00
2022-10-20T09:48:00.739Z,100.00
2022-10-20T09:53:28.765Z,100.00
2022-10-20T09:58:56.739Z,100.00
2022-10-20T10:04:40.842Z,100.00
2022-10-20T10:10:11.787Z,100.00
2022-10-20T10:15:41.874Z,100.00
2022-10-20T10:21:14.846Z,100.00
2022-10-20T10:26:51.787Z,100.00
2022-10-20T10:32:28.757Z,100.00
2022-10-20T10:38:07.807Z,100.00
2022-10-20T10:43:46.353Z,100.00
2022-10-20T10:49:43.766Z,100.00
2022-10-20T10:55:47.684Z,100.00
2022-10-20T11:01:28.815Z,100.00
2022-10-20T11:06:59.801Z,100.00
2022-10-20T11:12:42.801Z,100.00
2022-10-20T11:18:25.805Z,100.00
2022-10-20T11:24:18.800Z,100.00
2022-10-20T11:29:47.845Z,100.00
2022-10-20T11:35:22.826Z,100.00
2022-10-20T11:40:54.801Z,100.00
2022-10-20T11:46:23.843Z,100.00
2022-10-20T11:52:08.854Z,100.00
2022-10-20T11:57:56.408Z,100.00
2022-10-20T12:03:52.814Z,99.40
2022-10-20T12:09:53.818Z,100.00
2022-10-20T12:15:36.855Z,100.00
2022-10-20T12:21:06.964Z,95.21
2022-10-20T12:27:17.881Z,100.00
2022-10-20T12:33:03.843Z,100.00
2022-10-20T12:38:31.865Z,97.83
2022-10-20T12:44:07.851Z,81.67
2022-10-20T12:49:40.879Z,91.05
2022-10-20T12:55:10.855Z,79.87
2022-10-20T13:01:05.931Z,74.21
2022-10-20T13:06:57.874Z,79.49
2022-10-20T13:12:36.853Z,69.92
2022-10-20T13:18:12.919Z,79.77
2022-10-20T13:23:45.885Z,77.64
2022-10-20T13:29:12.869Z,85.91
2022-10-20T13:34:42.909Z,83.89
2022-10-20T13:40:23.577Z,82.44
2022-10-20T13:46:02.910Z,82.37
2022-10-20T13:51:32.934Z,100.00
2022-10-20T13:57:00.907Z,100.00
2022-10-20T14:02:40.929Z,100.00
2022-10-20T14:08:08.916Z,100.00
2022-10-20T14:13:37.914Z,100.00
2022-10-20T14:19:15.907Z,100.00
2022-10-20T14:24:43.931Z,100.00
2022-10-20T14:30:11.951Z,100.00
2022-10-20T14:35:48.947Z,100.00
2022-10-20T14:41:15.920Z,100.00
2022-10-20T14:46:45.928Z,100.00
2022-10-20T14:52:14.727Z,100.00
2022-10-20T14:58:03.957Z,100.00
2022-10-20T15:03:33.077Z,100.00
2022-10-20T15:09:07.992Z,100.00
2022-10-20T15:14:32.974Z,100.00
2022-10-20T15:19:59.959Z,100.00
2022-10-20T15:25:24.956Z,100.00
2022-10-20T15:30:49.943Z,100.00
2022-10-20T15:36:26.958Z,100.00
2022-10-20T15:41:53.839Z,100.00
2022-10-20T15:47:19.996Z,100.00
2022-10-20T15:52:48.060Z,100.00
2022-10-20T15:58:12.972Z,100.00
2022-10-20T16:03:36.969Z,100.00
2022-10-20T16:09:05.114Z,100.00
2022-10-20T16:14:29.977Z,100.00
2022-10-20T16:19:54.980Z,100.00
2022-10-20T16:25:22.949Z,100.00
2022-10-20T16:30:48.985Z,100.00
2022-10-20T16:36:13.990Z,100.00
2022-10-20T16:41:40.988Z,100.00
2022-10-20T16:47:05.006Z,100.00
2022-10-20T16:52:30.052Z,100.00
2022-10-20T16:57:58.002Z,100.00
2022-10-20T17:03:23.001Z,100.00
2022-10-20T17:08:48.074Z,100.00
2022-10-20T17:14:15.022Z,100.00
2022-10-20T17:19:39.006Z,100.00
2022-10-20T17:25:04.047Z,100.00
2022-10-20T17:30:32.006Z,100.00
2022-10-20T17:35:58.023Z,100.00
2022-10-20T17:41:23.999Z,100.00
2022-10-20T17:46:53.041Z,100.00
2022-10-20T17:52:17.049Z,100.00
2022-10-20T17:57:41.018Z,100.00
2022-10-20T18:03:09.001Z,100.00
2022-10-20T18:08:33.083Z,100.00
2022-10-20T18:13:59.064Z,100.00
2022-10-20T18:19:35.033Z,100.00
2022-10-20T18:25:00.221Z,100.00
2022-10-20T18:30:25.049Z,100.00
2022-10-20T18:35:53.022Z,100.00
2022-10-20T18:41:21.054Z,100.00
2022-10-20T18:46:46.300Z,100.00
2022-10-20T18:52:13.159Z,100.00
2022-10-20T18:57:41.148Z,100.00
2022-10-20T19:03:06.079Z,100.00
2022-10-20T19:08:34.100Z,100.00
2022-10-20T19:13:59.047Z,100.00
2022-10-20T19:19:31.161Z,100.00
2022-10-20T19:24:59.098Z,100.00
2022-10-20T19:36:09.066Z,100.00
2022-10-20T19:41:36.155Z,100.00
2022-10-20T19:47:02.132Z,100.00
2022-10-20T19:52:28.065Z,100.00
2022-10-20T19:57:56.102Z,100.00
2022-10-20T20:03:20.110Z,100.00
2022-10-20T20:08:46.241Z,100.00
2022-10-20T20:14:17.119Z,100.00
2022-10-20T20:19:49.105Z,100.00
2022-10-20T20:25:15.088Z,100.00
2022-10-20T20:30:42.137Z,100.00
2022-10-20T20:36:08.237Z,100.00
2022-10-20T20:41:35.233Z,100.00
2022-10-20T20:47:03.118Z,100.00
2022-10-20T20:52:28.187Z,100.00
2022-10-20T20:57:53.102Z,100.00
2022-10-20T21:03:20.116Z,100.00
2022-10-20T21:08:47.176Z,100.00
2022-10-20T21:14:14.162Z,100.00
2022-10-20T21:19:48.144Z,100.00
2022-10-20T21:25:14.135Z,100.00
2022-10-20T21:30:38.111Z,100.00
2022-10-20T21:36:09.199Z,100.00
2022-10-20T21:41:35.139Z,100.00
2022-10-20T21:47:01.178Z,100.00
2022-10-20T21:52:28.185Z,100.00
2022-10-20T21:57:53.178Z,100.00
2022-10-20T22:03:17.206Z,100.00
2022-10-20T22:08:46.178Z,100.00
2022-10-20T22:14:11.171Z,100.00
2022-10-20T22:19:42.167Z,100.00
2022-10-20T22:25:10.176Z,100.00
2022-10-20T22:30:35.190Z,100.00
2022-10-20T22:36:00.148Z,100.00
2022-10-20T22:41:27.183Z,100.00
2022-10-20T22:46:52.172Z,100.00
2022-10-20T22:52:16.211Z,100.00
2022-10-20T22:57:44.181Z,100.00
2022-10-20T23:03:08.239Z,100.00
2022-10-20T23:08:33.253Z,100.00
2022-10-20T23:14:01.197Z,100.00
2022-10-20T23:19:33.210Z,100.00
2022-10-20T23:24:58.201Z,100.00
2022-10-20T23:30:26.221Z,100.00
2022-10-20T23:35:51.201Z,100.00
2022-10-20T23:41:15.185Z,100.00
2022-10-20T23:46:43.189Z,100.00
2022-10-20T23:52:07.247Z,100.00
2022-10-20T23:57:32.297Z,100.00
